sensor_id;sensor_type;location;lat;lon;timestamp;P1;durP1;ratioP1;P2;durP2;ratioP2
43046;SDS011;28672;49.358;8.780;2023-01-06T00:01:00;16.63;;;1.90;;
43046;SDS011;28672;49.358;8.780;2023-01-06T00:03:28;8.82;;;2.75;;
43046;SDS011;28672;49.358;8.780;2023-01-06T00:05:58;1.52;;;1.00;;
43046;SDS011;28672;49.358;8.780;2023-01-06T00:08:25;1.50;;;1.13;;
43046;SDS011;28672;49.358;8.780;2023-01-06T00:10:51;1.02;;;1.02;;
43046;SDS011;28672;49.358;8.780;2023-01-06T00:13:16;0.80;;;0.80;;
43046;SDS011;28672;49.358;8.780;2023-01-06T00:15:42;1.13;;;1.08;;
43046;SDS011;28672;49.358;8.780;2023-01-06T00:18:07;0.85;;;0.85;;
43046;SDS011;28672;49.358;8.780;2023-01-06T00:20:33;4.15;;;1.08;;
43046;SDS011;28672;49.358;8.780;2023-01-06T00:22:59;1.80;;;0.88;;
43046;SDS011;28672;49.358;8.780;2023-01-06T00:25:24;2.25;;;1.13;;
43046;SDS011;28672;49.358;8.780;2023-01-06T00:27:50;0.93;;;0.93;;
43046;SDS011;28672;49.358;8.780;2023-01-06T00:30:15;0.68;;;0.68;;
43046;SDS011;28672;49.358;8.780;2023-01-06T00:32:41;0.65;;;0.65;;
43046;SDS011;28672;49.358;8.780;2023-01-06T00:35:07;1.02;;;0.98;;
43046;SDS011;28672;49.358;8.780;2023-01-06T00:37:33;0.40;;;0.40;;
43046;SDS011;28672;49.358;8.780;2023-01-06T00:39:58;3.67;;;1.38;;
43046;SDS011;28672;49.358;8.780;2023-01-06T00:42:24;2.15;;;0.75;;
43046;SDS011;28672;49.358;8.780;2023-01-06T00:44:50;1.02;;;1.02;;
43046;SDS011;28672;49.358;8.780;2023-01-06T00:47:16;1.08;;;1.05;;
43046;SDS011;28672;49.358;8.780;2023-01-06T00:49:41;0.60;;;0.60;;
43046;SDS011;28672;49.358;8.780;2023-01-06T00:52:07;3.58;;;1.00;;
43046;SDS011;28672;49.358;8.780;2023-01-06T00:54:33;0.75;;;0.75;;
43046;SDS011;28672;49.358;8.780;2023-01-06T00:57:00;2.08;;;0.98;;
43046;SDS011;28672;49.358;8.780;2023-01-06T00:59:26;1.10;;;1.02;;
43046;SDS011;28672;49.358;8.780;2023-01-06T01:01:54;0.80;;;0.80;;
43046;SDS011;28672;49.358;8.780;2023-01-06T01:04:21;5.97;;;1.55;;
43046;SDS011;28672;49.358;8.780;2023-01-06T01:06:47;1.85;;;1.42;;
43046;SDS011;28672;49.358;8.780;2023-01-06T01:09:18;1.83;;;1.67;;
43046;SDS011;28672;49.358;8.780;2023-01-06T01:11:48;1.20;;;1.10;;
43046;SDS011;28672;49.358;8.780;2023-01-06T01:14:33;3.72;;;1.63;;
43046;SDS011;28672;49.358;8.780;2023-01-06T01:17:03;1.42;;;1.25;;
43046;SDS011;28672;49.358;8.780;2023-01-06T01:19:29;1.20;;;1.10;;
43046;SDS011;28672;49.358;8.780;2023-01-06T01:21:55;2.00;;;1.67;;
43046;SDS011;28672;49.358;8.780;2023-01-06T01:24:21;0.85;;;0.85;;
43046;SDS011;28672;49.358;8.780;2023-01-06T01:26:47;0.77;;;0.77;;
43046;SDS011;28672;49.358;8.780;2023-01-06T01:29:14;0.85;;;0.82;;
43046;SDS011;28672;49.358;8.780;2023-01-06T01:31:41;0.80;;;0.80;;
43046;SDS011;28672;49.358;8.780;2023-01-06T01:34:07;1.17;;;1.08;;
43046;SDS011;28672;49.358;8.780;2023-01-06T01:36:35;2.70;;;1.20;;
43046;SDS011;28672;49.358;8.780;2023-01-06T01:39:00;3.65;;;1.30;;
43046;SDS011;28672;49.358;8.780;2023-01-06T01:41:26;1.80;;;1.23;;
43046;SDS011;28672;49.358;8.780;2023-01-06T01:43:54;3.13;;;0.80;;
43046;SDS011;28672;49.358;8.780;2023-01-06T01:46:22;1.75;;;1.05;;
43046;SDS011;28672;49.358;8.780;2023-01-06T01:48:52;3.55;;;1.20;;
43046;SDS011;28672;49.358;8.780;2023-01-06T01:51:31;1.42;;;1.27;;
43046;SDS011;28672;49.358;8.780;2023-01-06T01:54:01;1.50;;;1.40;;
43046;SDS011;28672;49.358;8.780;2023-01-06T01:56:31;0.68;;;0.68;;
43046;SDS011;28672;49.358;8.780;2023-01-06T01:59:04;1.05;;;0.95;;
43046;SDS011;28672;49.358;8.780;2023-01-06T02:01:43;1.08;;;0.98;;
43046;SDS011;28672;49.358;8.780;2023-01-06T02:04:10;1.30;;;1.02;;
43046;SDS011;28672;49.358;8.780;2023-01-06T02:06:37;0.82;;;0.77;;
43046;SDS011;28672;49.358;8.780;2023-01-06T02:09:20;0.52;;;0.52;;
43046;SDS011;28672;49.358;8.780;2023-01-06T02:11:52;0.40;;;0.40;;
43046;SDS011;28672;49.358;8.780;2023-01-06T02:14:22;0.70;;;0.70;;
43046;SDS011;28672;49.358;8.780;2023-01-06T02:16:52;0.50;;;0.50;;
43046;SDS011;28672;49.358;8.780;2023-01-06T02:24:54;0.55;;;0.55;;
43046;SDS011;28672;49.358;8.780;2023-01-06T02:36:09;0.50;;;0.50;;
43046;SDS011;28672;49.358;8.780;2023-01-06T02:41:41;0.80;;;0.80;;
43046;SDS011;28672;49.358;8.780;2023-01-06T02:46:52;0.63;;;0.60;;
43046;SDS011;28672;49.358;8.780;2023-01-06T02:52:10;0.50;;;0.50;;
43046;SDS011;28672;49.358;8.780;2023-01-06T02:54:42;0.63;;;0.63;;
43046;SDS011;28672;49.358;8.780;2023-01-06T02:57:21;0.60;;;0.60;;
43046;SDS011;28672;49.358;8.780;2023-01-06T03:02:36;0.50;;;0.50;;
43046;SDS011;28672;49.358;8.780;2023-01-06T03:05:05;1.95;;;0.90;;
43046;SDS011;28672;49.358;8.780;2023-01-06T03:07:34;0.40;;;0.40;;
43046;SDS011;28672;49.358;8.780;2023-01-06T03:10:02;0.88;;;0.88;;
43046;SDS011;28672;49.358;8.780;2023-01-06T03:12:31;0.80;;;0.80;;
43046;SDS011;28672;49.358;8.780;2023-01-06T03:15:02;0.88;;;0.65;;
43046;SDS011;28672;49.358;8.780;2023-01-06T03:17:28;0.40;;;0.40;;
43046;SDS011;28672;49.358;8.780;2023-01-06T03:19:54;2.30;;;0.80;;
43046;SDS011;28672;49.358;8.780;2023-01-06T03:22:20;0.50;;;0.50;;
43046;SDS011;28672;49.358;8.780;2023-01-06T03:24:48;0.63;;;0.63;;
43046;SDS011;28672;49.358;8.780;2023-01-06T03:27:14;0.93;;;0.50;;
43046;SDS011;28672;49.358;8.780;2023-01-06T03:29:42;0.82;;;0.82;;
43046;SDS011;28672;49.358;8.780;2023-01-06T03:32:12;0.40;;;0.40;;
43046;SDS011;28672;49.358;8.780;2023-01-06T03:35:00;0.52;;;0.52;;
43046;SDS011;28672;49.358;8.780;2023-01-06T03:37:57;0.63;;;0.63;;
43046;SDS011;28672;49.358;8.780;2023-01-06T03:40:33;1.02;;;0.90;;
43046;SDS011;28672;49.358;8.780;2023-01-06T03:46:11;0.40;;;0.40;;
43046;SDS011;28672;49.358;8.780;2023-01-06T03:59:44;0.45;;;0.45;;
43046;SDS011;28672;49.358;8.780;2023-01-06T04:02:17;0.50;;;0.50;;
43046;SDS011;28672;49.358;8.780;2023-01-06T04:04:44;0.40;;;0.40;;
43046;SDS011;28672;49.358;8.780;2023-01-06T04:07:44;0.75;;;0.75;;
43046;SDS011;28672;49.358;8.780;2023-01-06T04:10:11;0.43;;;0.43;;
43046;SDS011;28672;49.358;8.780;2023-01-06T04:12:37;0.47;;;0.47;;
43046;SDS011;28672;49.358;8.780;2023-01-06T04:17:33;0.45;;;0.45;;
43046;SDS011;28672;49.358;8.780;2023-01-06T04:19:59;0.43;;;0.43;;
43046;SDS011;28672;49.358;8.780;2023-01-06T04:22:26;0.40;;;0.40;;
43046;SDS011;28672;49.358;8.780;2023-01-06T04:24:52;0.40;;;0.40;;
43046;SDS011;28672;49.358;8.780;2023-01-06T04:27:17;0.40;;;0.40;;
43046;SDS011;28672;49.358;8.780;2023-01-06T04:29:43;0.55;;;0.55;;
43046;SDS011;28672;49.358;8.780;2023-01-06T04:32:08;0.55;;;0.55;;
43046;SDS011;28672;49.358;8.780;2023-01-06T04:34:34;2.47;;;0.50;;
43046;SDS011;28672;49.358;8.780;2023-01-06T04:36:59;0.55;;;0.55;;
43046;SDS011;28672;49.358;8.780;2023-01-06T04:39:25;0.50;;;0.50;;
43046;SDS011;28672;49.358;8.780;2023-01-06T04:41:51;0.30;;;0.30;;
43046;SDS011;28672;49.358;8.780;2023-01-06T04:44:16;0.32;;;0.32;;
43046;SDS011;28672;49.358;8.780;2023-01-06T04:46:42;0.50;;;0.50;;
43046;SDS011;28672;49.358;8.780;2023-01-06T04:49:07;0.30;;;0.30;;
43046;SDS011;28672;49.358;8.780;2023-01-06T04:51:33;0.38;;;0.38;;
43046;SDS011;28672;49.358;8.780;2023-01-06T04:53:59;0.30;;;0.30;;
43046;SDS011;28672;49.358;8.780;2023-01-06T04:56:24;0.40;;;0.40;;
43046;SDS011;28672;49.358;8.780;2023-01-06T04:58:53;0.50;;;0.50;;
43046;SDS011;28672;49.358;8.780;2023-01-06T05:01:20;0.30;;;0.30;;
43046;SDS011;28672;49.358;8.780;2023-01-06T05:03:46;0.40;;;0.40;;
43046;SDS011;28672;49.358;8.780;2023-01-06T05:06:11;0.75;;;0.75;;
43046;SDS011;28672;49.358;8.780;2023-01-06T05:08:38;1.13;;;1.02;;
43046;SDS011;28672;49.358;8.780;2023-01-06T05:11:06;0.50;;;0.50;;
43046;SDS011;28672;49.358;8.780;2023-01-06T05:13:33;0.52;;;0.52;;
43046;SDS011;28672;49.358;8.780;2023-01-06T05:15:59;0.57;;;0.57;;
43046;SDS011;28672;49.358;8.780;2023-01-06T05:18:25;0.50;;;0.50;;
43046;SDS011;28672;49.358;8.780;2023-01-06T05:20:51;0.52;;;0.52;;
43046;SDS011;28672;49.358;8.780;2023-01-06T05:23:18;0.50;;;0.50;;
43046;SDS011;28672;49.358;8.780;2023-01-06T05:25:44;0.60;;;0.60;;
43046;SDS011;28672;49.358;8.780;2023-01-06T05:28:09;0.63;;;0.63;;
43046;SDS011;28672;49.358;8.780;2023-01-06T05:30:35;0.63;;;0.63;;
43046;SDS011;28672;49.358;8.780;2023-01-06T05:33:01;0.50;;;0.50;;
43046;SDS011;28672;49.358;8.780;2023-01-06T05:35:27;0.50;;;0.50;;
43046;SDS011;28672;49.358;8.780;2023-01-06T05:37:53;0.40;;;0.40;;
43046;SDS011;28672;49.358;8.780;2023-01-06T05:40:19;0.80;;;0.80;;
43046;SDS011;28672;49.358;8.780;2023-01-06T05:42:44;0.40;;;0.40;;
43046;SDS011;28672;49.358;8.780;2023-01-06T05:45:10;0.70;;;0.70;;
43046;SDS011;28672;49.358;8.780;2023-01-06T05:47:35;0.70;;;0.70;;
43046;SDS011;28672;49.358;8.780;2023-01-06T05:50:01;0.43;;;0.43;;
43046;SDS011;28672;49.358;8.780;2023-01-06T05:52:27;0.50;;;0.50;;
43046;SDS011;28672;49.358;8.780;2023-01-06T05:54:53;0.50;;;0.50;;
43046;SDS011;28672;49.358;8.780;2023-01-06T05:57:18;0.45;;;0.45;;
43046;SDS011;28672;49.358;8.780;2023-01-06T05:59:44;5.85;;;1.23;;
43046;SDS011;28672;49.358;8.780;2023-01-06T06:02:09;0.60;;;0.60;;
43046;SDS011;28672;49.358;8.780;2023-01-06T06:04:35;0.30;;;0.30;;
43046;SDS011;28672;49.358;8.780;2023-01-06T06:07:00;0.47;;;0.47;;
43046;SDS011;28672;49.358;8.780;2023-01-06T06:09:26;0.40;;;0.40;;
43046;SDS011;28672;49.358;8.780;2023-01-06T06:11:55;0.77;;;0.77;;
43046;SDS011;28672;49.358;8.780;2023-01-06T06:14:20;0.50;;;0.50;;
43046;SDS011;28672;49.358;8.780;2023-01-06T06:16:46;0.57;;;0.57;;
43046;SDS011;28672;49.358;8.780;2023-01-06T06:19:12;0.40;;;0.40;;
43046;SDS011;28672;49.358;8.780;2023-01-06T06:21:38;0.50;;;0.50;;
43046;SDS011;28672;49.358;8.780;2023-01-06T06:24:03;10.70;;;1.95;;
43046;SDS011;28672;49.358;8.780;2023-01-06T06:26:29;2.60;;;0.77;;
43046;SDS011;28672;49.358;8.780;2023-01-06T06:28:55;0.80;;;0.80;;
43046;SDS011;28672;49.358;8.780;2023-01-06T06:31:29;0.57;;;0.57;;
43046;SDS011;28672;49.358;8.780;2023-01-06T06:33:56;0.30;;;0.30;;
43046;SDS011;28672;49.358;8.780;2023-01-06T06:36:23;0.82;;;0.70;;
43046;SDS011;28672;49.358;8.780;2023-01-06T06:38:49;0.52;;;0.50;;
43046;SDS011;28672;49.358;8.780;2023-01-06T06:41:16;1.02;;;0.88;;
43046;SDS011;28672;49.358;8.780;2023-01-06T06:43:42;1.58;;;1.48;;
43046;SDS011;28672;49.358;8.780;2023-01-06T06:46:08;0.80;;;0.80;;
43046;SDS011;28672;49.358;8.780;2023-01-06T06:48:34;0.40;;;0.40;;
43046;SDS011;28672;49.358;8.780;2023-01-06T06:51:01;1.15;;;1.05;;
43046;SDS011;28672;49.358;8.780;2023-01-06T06:53:28;0.60;;;0.60;;
43046;SDS011;28672;49.358;8.780;2023-01-06T06:55:54;0.60;;;0.60;;
43046;SDS011;28672;49.358;8.780;2023-01-06T06:58:21;0.65;;;0.52;;
43046;SDS011;28672;49.358;8.780;2023-01-06T07:00:46;0.52;;;0.40;;
43046;SDS011;28672;49.358;8.780;2023-01-06T07:03:12;0.60;;;0.52;;
43046;SDS011;28672;49.358;8.780;2023-01-06T07:05:38;0.70;;;0.70;;
43046;SDS011;28672;49.358;8.780;2023-01-06T07:08:05;1.58;;;1.13;;
43046;SDS011;28672;49.358;8.780;2023-01-06T07:10:30;1.05;;;0.95;;
43046;SDS011;28672;49.358;8.780;2023-01-06T07:12:56;0.82;;;0.82;;
43046;SDS011;28672;49.358;8.780;2023-01-06T07:15:21;0.75;;;0.50;;
43046;SDS011;28672;49.358;8.780;2023-01-06T07:17:47;0.30;;;0.30;;
43046;SDS011;28672;49.358;8.780;2023-01-06T07:20:13;0.65;;;0.52;;
43046;SDS011;28672;49.358;8.780;2023-01-06T07:22:38;0.45;;;0.45;;
43046;SDS011;28672;49.358;8.780;2023-01-06T07:25:05;3.45;;;0.70;;
43046;SDS011;28672;49.358;8.780;2023-01-06T07:27:31;0.50;;;0.50;;
43046;SDS011;28672;49.358;8.780;2023-01-06T07:29:57;0.50;;;0.50;;
43046;SDS011;28672;49.358;8.780;2023-01-06T07:32:22;0.50;;;0.50;;
43046;SDS011;28672;49.358;8.780;2023-01-06T07:34:48;0.40;;;0.40;;
43046;SDS011;28672;49.358;8.780;2023-01-06T07:37:13;0.68;;;0.68;;
43046;SDS011;28672;49.358;8.780;2023-01-06T07:39:39;0.30;;;0.30;;
43046;SDS011;28672;49.358;8.780;2023-01-06T07:42:06;0.40;;;0.40;;
43046;SDS011;28672;49.358;8.780;2023-01-06T07:44:32;1.08;;;0.50;;
43046;SDS011;28672;49.358;8.780;2023-01-06T07:46:58;0.40;;;0.40;;
43046;SDS011;28672;49.358;8.780;2023-01-06T07:49:24;0.52;;;0.52;;
43046;SDS011;28672;49.358;8.780;2023-01-06T07:51:49;0.40;;;0.40;;
43046;SDS011;28672;49.358;8.780;2023-01-06T07:54:15;0.30;;;0.30;;
43046;SDS011;28672;49.358;8.780;2023-01-06T07:56:40;0.55;;;0.55;;
43046;SDS011;28672;49.358;8.780;2023-01-06T07:59:07;0.30;;;0.30;;
43046;SDS011;28672;49.358;8.780;2023-01-06T08:01:32;0.85;;;0.77;;
43046;SDS011;28672;49.358;8.780;2023-01-06T08:03:58;0.32;;;0.32;;
43046;SDS011;28672;49.358;8.780;2023-01-06T08:06:23;0.30;;;0.30;;
43046;SDS011;28672;49.358;8.780;2023-01-06T08:08:49;0.30;;;0.30;;
43046;SDS011;28672;49.358;8.780;2023-01-06T08:11:15;0.30;;;0.30;;
43046;SDS011;28672;49.358;8.780;2023-01-06T08:13:40;0.40;;;0.40;;
43046;SDS011;28672;49.358;8.780;2023-01-06T08:16:06;0.50;;;0.50;;
43046;SDS011;28672;49.358;8.780;2023-01-06T08:18:33;0.30;;;0.30;;
43046;SDS011;28672;49.358;8.780;2023-01-06T08:21:02;0.30;;;0.30;;
43046;SDS011;28672;49.358;8.780;2023-01-06T08:23:30;0.40;;;0.40;;
43046;SDS011;28672;49.358;8.780;2023-01-06T08:26:05;0.32;;;0.32;;
43046;SDS011;28672;49.358;8.780;2023-01-06T08:28:37;0.47;;;0.47;;
43046;SDS011;28672;49.358;8.780;2023-01-06T08:31:03;0.40;;;0.40;;
43046;SDS011;28672;49.358;8.780;2023-01-06T08:33:33;0.38;;;0.38;;
43046;SDS011;28672;49.358;8.780;2023-01-06T08:35:59;0.57;;;0.35;;
43046;SDS011;28672;49.358;8.780;2023-01-06T08:38:27;0.45;;;0.45;;
43046;SDS011;28672;49.358;8.780;2023-01-06T08:40:54;0.40;;;0.40;;
43046;SDS011;28672;49.358;8.780;2023-01-06T08:43:21;0.30;;;0.30;;
43046;SDS011;28672;49.358;8.780;2023-01-06T08:45:47;0.47;;;0.47;;
43046;SDS011;28672;49.358;8.780;2023-01-06T08:48:13;0.40;;;0.40;;
43046;SDS011;28672;49.358;8.780;2023-01-06T08:50:38;0.52;;;0.52;;
43046;SDS011;28672;49.358;8.780;2023-01-06T08:53:05;0.30;;;0.30;;
43046;SDS011;28672;49.358;8.780;2023-01-06T08:55:30;1.20;;;0.98;;
43046;SDS011;28672;49.358;8.780;2023-01-06T08:57:56;0.30;;;0.30;;
43046;SDS011;28672;49.358;8.780;2023-01-06T09:00:22;0.38;;;0.38;;
43046;SDS011;28672;49.358;8.780;2023-01-06T09:02:48;0.98;;;0.88;;
43046;SDS011;28672;49.358;8.780;2023-01-06T09:05:13;0.30;;;0.30;;
43046;SDS011;28672;49.358;8.780;2023-01-06T09:07:39;0.60;;;0.60;;
43046;SDS011;28672;49.358;8.780;2023-01-06T09:10:05;0.43;;;0.43;;
43046;SDS011;28672;49.358;8.780;2023-01-06T09:12:31;0.30;;;0.30;;
43046;SDS011;28672;49.358;8.780;2023-01-06T09:14:57;0.50;;;0.50;;
43046;SDS011;28672;49.358;8.780;2023-01-06T09:17:23;0.30;;;0.30;;
43046;SDS011;28672;49.358;8.780;2023-01-06T09:19:48;0.43;;;0.43;;
43046;SDS011;28672;49.358;8.780;2023-01-06T09:22:14;0.30;;;0.30;;
43046;SDS011;28672;49.358;8.780;2023-01-06T09:24:40;0.50;;;0.50;;
43046;SDS011;28672;49.358;8.780;2023-01-06T09:27:05;0.30;;;0.30;;
43046;SDS011;28672;49.358;8.780;2023-01-06T09:29:31;0.52;;;0.52;;
43046;SDS011;28672;49.358;8.780;2023-01-06T09:31:56;0.50;;;0.50;;
43046;SDS011;28672;49.358;8.780;2023-01-06T09:34:22;0.30;;;0.30;;
43046;SDS011;28672;49.358;8.780;2023-01-06T09:36:47;0.30;;;0.30;;
43046;SDS011;28672;49.358;8.780;2023-01-06T09:39:13;0.40;;;0.40;;
43046;SDS011;28672;49.358;8.780;2023-01-06T09:44:33;0.40;;;0.40;;
43046;SDS011;28672;49.358;8.780;2023-01-06T09:47:05;0.40;;;0.40;;
43046;SDS011;28672;49.358;8.780;2023-01-06T09:49:43;0.30;;;0.30;;
43046;SDS011;28672;49.358;8.780;2023-01-06T09:52:34;1.45;;;0.40;;
43046;SDS011;28672;49.358;8.780;2023-01-06T09:57:51;0.40;;;0.40;;
43046;SDS011;28672;49.358;8.780;2023-01-06T10:03:17;0.57;;;0.57;;
43046;SDS011;28672;49.358;8.780;2023-01-06T10:12:45;0.35;;;0.35;;
43046;SDS011;28672;49.358;8.780;2023-01-06T10:16:03;0.63;;;0.60;;
43046;SDS011;28672;49.358;8.780;2023-01-06T10:18:15;0.40;;;0.40;;
43046;SDS011;28672;49.358;8.780;2023-01-06T10:20:58;0.30;;;0.30;;
43046;SDS011;28672;49.358;8.780;2023-01-06T10:23:49;0.55;;;0.55;;
43046;SDS011;28672;49.358;8.780;2023-01-06T10:26:39;0.30;;;0.30;;
43046;SDS011;28672;49.358;8.780;2023-01-06T10:29:11;0.40;;;0.40;;
43046;SDS011;28672;49.358;8.780;2023-01-06T10:31:43;0.38;;;0.38;;
43046;SDS011;28672;49.358;8.780;2023-01-06T10:34:13;0.30;;;0.30;;
43046;SDS011;28672;49.358;8.780;2023-01-06T10:39:41;2.72;;;0.77;;
43046;SDS011;28672;49.358;8.780;2023-01-06T10:42:11;0.40;;;0.40;;
43046;SDS011;28672;49.358;8.780;2023-01-06T10:45:09;5.78;;;0.50;;
43046;SDS011;28672;49.358;8.780;2023-01-06T10:47:36;0.30;;;0.30;;
43046;SDS011;28672;49.358;8.780;2023-01-06T10:50:01;1.05;;;0.65;;
43046;SDS011;28672;49.358;8.780;2023-01-06T10:52:27;0.30;;;0.30;;
43046;SDS011;28672;49.358;8.780;2023-01-06T10:54:55;0.40;;;0.40;;
43046;SDS011;28672;49.358;8.780;2023-01-06T10:57:28;0.30;;;0.30;;
43046;SDS011;28672;49.358;8.780;2023-01-06T11:02:46;0.30;;;0.30;;
43046;SDS011;28672;49.358;8.780;2023-01-06T11:05:15;0.45;;;0.45;;
43046;SDS011;28672;49.358;8.780;2023-01-06T11:07:46;0.30;;;0.30;;
43046;SDS011;28672;49.358;8.780;2023-01-06T11:13:04;0.30;;;0.30;;
43046;SDS011;28672;49.358;8.780;2023-01-06T11:15:35;0.75;;;0.45;;
43046;SDS011;28672;49.358;8.780;2023-01-06T11:18:04;0.82;;;0.60;;
43046;SDS011;28672;49.358;8.780;2023-01-06T11:20:41;0.40;;;0.40;;
43046;SDS011;28672;49.358;8.780;2023-01-06T11:23:17;0.70;;;0.70;;
43046;SDS011;28672;49.358;8.780;2023-01-06T11:28:30;0.30;;;0.30;;
43046;SDS011;28672;49.358;8.780;2023-01-06T11:31:04;0.30;;;0.30;;
43046;SDS011;28672;49.358;8.780;2023-01-06T11:33:34;0.30;;;0.30;;
43046;SDS011;28672;49.358;8.780;2023-01-06T11:36:09;0.30;;;0.30;;
43046;SDS011;28672;49.358;8.780;2023-01-06T11:39:37;0.30;;;0.30;;
43046;SDS011;28672;49.358;8.780;2023-01-06T11:41:39;0.30;;;0.30;;
43046;SDS011;28672;49.358;8.780;2023-01-06T11:44:16;0.43;;;0.43;;
43046;SDS011;28672;49.358;8.780;2023-01-06T11:46:47;0.30;;;0.30;;
43046;SDS011;28672;49.358;8.780;2023-01-06T11:49:19;0.35;;;0.35;;
43046;SDS011;28672;49.358;8.780;2023-01-06T11:51:50;0.40;;;0.40;;
43046;SDS011;28672;49.358;8.780;2023-01-06T11:54:36;0.63;;;0.63;;
43046;SDS011;28672;49.358;8.780;2023-01-06T12:02:29;0.40;;;0.40;;
43046;SDS011;28672;49.358;8.780;2023-01-06T12:05:04;0.30;;;0.30;;
43046;SDS011;28672;49.358;8.780;2023-01-06T12:07:42;0.50;;;0.50;;
43046;SDS011;28672;49.358;8.780;2023-01-06T12:12:41;0.30;;;0.30;;
43046;SDS011;28672;49.358;8.780;2023-01-06T12:15:11;0.30;;;0.30;;
43046;SDS011;28672;49.358;8.780;2023-01-06T12:17:42;0.30;;;0.30;;
43046;SDS011;28672;49.358;8.780;2023-01-06T12:20:31;0.38;;;0.38;;
43046;SDS011;28672;49.358;8.780;2023-01-06T12:23:00;0.30;;;0.30;;
43046;SDS011;28672;49.358;8.780;2023-01-06T12:25:40;0.57;;;0.57;;
43046;SDS011;28672;49.358;8.780;2023-01-06T12:34:06;0.30;;;0.30;;
43046;SDS011;28672;49.358;8.780;2023-01-06T12:36:39;0.55;;;0.55;;
43046;SDS011;28672;49.358;8.780;2023-01-06T12:39:32;0.30;;;0.30;;
43046;SDS011;28672;49.358;8.780;2023-01-06T12:42:11;0.30;;;0.30;;
43046;SDS011;28672;49.358;8.780;2023-01-06T12:44:50;0.30;;;0.30;;
43046;SDS011;28672;49.358;8.780;2023-01-06T12:47:37;0.50;;;0.50;;
43046;SDS011;28672;49.358;8.780;2023-01-06T12:50:32;0.73;;;0.68;;
43046;SDS011;28672;49.358;8.780;2023-01-06T12:53:04;0.38;;;0.38;;
43046;SDS011;28672;49.358;8.780;2023-01-06T12:58:25;0.40;;;0.40;;
43046;SDS011;28672;49.358;8.780;2023-01-06T13:01:00;0.50;;;0.50;;
43046;SDS011;28672;49.358;8.780;2023-01-06T13:03:45;0.30;;;0.30;;
43046;SDS011;28672;49.358;8.780;2023-01-06T13:11:45;0.40;;;0.40;;
43046;SDS011;28672;49.358;8.780;2023-01-06T13:17:22;0.40;;;0.40;;
43046;SDS011;28672;49.358;8.780;2023-01-06T13:19:53;0.40;;;0.40;;
43046;SDS011;28672;49.358;8.780;2023-01-06T13:23:10;0.30;;;0.30;;
43046;SDS011;28672;49.358;8.780;2023-01-06T13:36:40;0.30;;;0.30;;
43046;SDS011;28672;49.358;8.780;2023-01-06T13:41:39;0.40;;;0.40;;
43046;SDS011;28672;49.358;8.780;2023-01-06T13:44:13;0.30;;;0.30;;
43046;SDS011;28672;49.358;8.780;2023-01-06T13:46:42;0.30;;;0.30;;
43046;SDS011;28672;49.358;8.780;2023-01-06T13:49:09;0.30;;;0.30;;
43046;SDS011;28672;49.358;8.780;2023-01-06T13:51:36;0.40;;;0.40;;
43046;SDS011;28672;49.358;8.780;2023-01-06T13:54:04;0.50;;;0.50;;
43046;SDS011;28672;49.358;8.780;2023-01-06T13:56:33;0.30;;;0.30;;
43046;SDS011;28672;49.358;8.780;2023-01-06T14:01:40;0.40;;;0.40;;
43046;SDS011;28672;49.358;8.780;2023-01-06T14:06:56;0.30;;;0.30;;
43046;SDS011;28672;49.358;8.780;2023-01-06T14:09:22;0.32;;;0.32;;
43046;SDS011;28672;49.358;8.780;2023-01-06T14:11:48;0.30;;;0.30;;
43046;SDS011;28672;49.358;8.780;2023-01-06T14:14:26;0.40;;;0.40;;
43046;SDS011;28672;49.358;8.780;2023-01-06T14:16:57;0.30;;;0.30;;
43046;SDS011;28672;49.358;8.780;2023-01-06T14:19:33;0.50;;;0.50;;
43046;SDS011;28672;49.358;8.780;2023-01-06T14:22:15;0.40;;;0.40;;
43046;SDS011;28672;49.358;8.780;2023-01-06T14:24:50;0.30;;;0.30;;
43046;SDS011;28672;49.358;8.780;2023-01-06T14:30:43;0.30;;;0.30;;
43046;SDS011;28672;49.358;8.780;2023-01-06T14:33:04;0.50;;;0.50;;
43046;SDS011;28672;49.358;8.780;2023-01-06T14:35:49;0.32;;;0.32;;
43046;SDS011;28672;49.358;8.780;2023-01-06T14:38:23;0.40;;;0.40;;
43046;SDS011;28672;49.358;8.780;2023-01-06T14:40:56;0.40;;;0.40;;
43046;SDS011;28672;49.358;8.780;2023-01-06T14:45:51;0.40;;;0.40;;
43046;SDS011;28672;49.358;8.780;2023-01-06T14:48:18;0.40;;;0.40;;
43046;SDS011;28672;49.358;8.780;2023-01-06T14:50:51;0.40;;;0.40;;
43046;SDS011;28672;49.358;8.780;2023-01-06T14:53:28;0.43;;;0.43;;
43046;SDS011;28672;49.358;8.780;2023-01-06T14:56:05;0.32;;;0.32;;
43046;SDS011;28672;49.358;8.780;2023-01-06T14:58:35;0.30;;;0.30;;
43046;SDS011;28672;49.358;8.780;2023-01-06T15:01:01;0.55;;;0.55;;
43046;SDS011;28672;49.358;8.780;2023-01-06T15:03:28;0.45;;;0.45;;
43046;SDS011;28672;49.358;8.780;2023-01-06T15:08:45;0.30;;;0.30;;
43046;SDS011;28672;49.358;8.780;2023-01-06T15:11:19;0.30;;;0.30;;
43046;SDS011;28672;49.358;8.780;2023-01-06T15:13:48;0.57;;;0.40;;
43046;SDS011;28672;49.358;8.780;2023-01-06T15:19:00;0.40;;;0.40;;
43046;SDS011;28672;49.358;8.780;2023-01-06T15:21:29;0.40;;;0.40;;
43046;SDS011;28672;49.358;8.780;2023-01-06T15:23:55;0.30;;;0.30;;
43046;SDS011;28672;49.358;8.780;2023-01-06T15:26:24;0.47;;;0.43;;
43046;SDS011;28672;49.358;8.780;2023-01-06T15:28:59;0.55;;;0.55;;
43046;SDS011;28672;49.358;8.780;2023-01-06T15:31:27;1.05;;;0.82;;
43046;SDS011;28672;49.358;8.780;2023-01-06T15:33:56;0.40;;;0.40;;
43046;SDS011;28672;49.358;8.780;2023-01-06T15:36:22;0.32;;;0.32;;
43046;SDS011;28672;49.358;8.780;2023-01-06T15:38:50;0.30;;;0.30;;
43046;SDS011;28672;49.358;8.780;2023-01-06T15:41:18;0.30;;;0.30;;
43046;SDS011;28672;49.358;8.780;2023-01-06T15:44:15;0.35;;;0.35;;
43046;SDS011;28672;49.358;8.780;2023-01-06T15:46:49;0.40;;;0.40;;
43046;SDS011;28672;49.358;8.780;2023-01-06T15:49:28;0.30;;;0.30;;
43046;SDS011;28672;49.358;8.780;2023-01-06T15:52:01;9.52;;;0.65;;
43046;SDS011;28672;49.358;8.780;2023-01-06T15:54:30;0.30;;;0.30;;
43046;SDS011;28672;49.358;8.780;2023-01-06T15:56:58;1.88;;;0.52;;
43046;SDS011;28672;49.358;8.780;2023-01-06T15:59:26;0.70;;;0.70;;
43046;SDS011;28672;49.358;8.780;2023-01-06T16:01:52;0.30;;;0.30;;
43046;SDS011;28672;49.358;8.780;2023-01-06T16:04:19;0.70;;;0.60;;
43046;SDS011;28672;49.358;8.780;2023-01-06T16:06:47;0.47;;;0.47;;
43046;SDS011;28672;49.358;8.780;2023-01-06T16:14:28;0.40;;;0.40;;
43046;SDS011;28672;49.358;8.780;2023-01-06T16:17:13;0.40;;;0.40;;
43046;SDS011;28672;49.358;8.780;2023-01-06T16:20:03;0.68;;;0.50;;
43046;SDS011;28672;49.358;8.780;2023-01-06T16:22:38;0.40;;;0.40;;
43046;SDS011;28672;49.358;8.780;2023-01-06T16:25:22;0.40;;;0.40;;
43046;SDS011;28672;49.358;8.780;2023-01-06T16:27:50;0.40;;;0.40;;
43046;SDS011;28672;49.358;8.780;2023-01-06T16:32:45;0.73;;;0.73;;
43046;SDS011;28672;49.358;8.780;2023-01-06T16:37:38;0.43;;;0.43;;
43046;SDS011;28672;49.358;8.780;2023-01-06T16:40:04;0.32;;;0.32;;
43046;SDS011;28672;49.358;8.780;2023-01-06T16:42:34;0.45;;;0.45;;
43046;SDS011;28672;49.358;8.780;2023-01-06T16:45:21;0.40;;;0.40;;
43046;SDS011;28672;49.358;8.780;2023-01-06T16:47:53;0.30;;;0.30;;
43046;SDS011;28672;49.358;8.780;2023-01-06T16:50:40;0.40;;;0.40;;
43046;SDS011;28672;49.358;8.780;2023-01-06T16:55:34;0.50;;;0.50;;
43046;SDS011;28672;49.358;8.780;2023-01-06T16:58:01;0.40;;;0.40;;
43046;SDS011;28672;49.358;8.780;2023-01-06T17:00:41;0.98;;;0.50;;
43046;SDS011;28672;49.358;8.780;2023-01-06T17:03:13;0.30;;;0.30;;
43046;SDS011;28672;49.358;8.780;2023-01-06T17:05:41;0.40;;;0.40;;
43046;SDS011;28672;49.358;8.780;2023-01-06T17:08:08;0.40;;;0.40;;
43046;SDS011;28672;49.358;8.780;2023-01-06T17:10:37;0.32;;;0.32;;
43046;SDS011;28672;49.358;8.780;2023-01-06T17:13:03;2.70;;;0.55;;
43046;SDS011;28672;49.358;8.780;2023-01-06T17:15:56;0.40;;;0.40;;
43046;SDS011;28672;49.358;8.780;2023-01-06T17:18:24;0.40;;;0.40;;
43046;SDS011;28672;49.358;8.780;2023-01-06T17:20:53;0.60;;;0.60;;